Latest Weather Observations for Jervois

IDD60801

Issued at 8:51 am CST Monday 6 February 2023 (issued every 10 minutes, with the page automatically refreshed every 10 minutes)

About weather observations | Map of weather stations | Latest weather observations for NT | Other Formats
Station Details ID: 015602 Name: JERVOIS Lat: -22.95 Lon: 136.14 Height: 328.0 m
Data from the previous 72 hours. | See also: Recent months at Jervois
Date/Time
CST
Temp
°C
App
Temp
°C
Dew
Point
°C
Rel
Hum
%
Delta-T
°C
Wind Press
QNH
hPa
Press
MSL
hPa
Rain since
9am
mm
Dir  Spd
km/h
Gust
km/h
Spd
kts
Gust
kts
06/08:30am 26.2 21.7 2.2 21 11.8 SSE 15 22 8 12 1012.8 1010.4 0.0
06/08:00am 24.6 20.6 2.7 24 10.7 S 13 20 7 11 1012.6 1010.2 0.0
06/07:30am 23.2 19.2 2.7 26 10.0 S 13 20 7 11 1012.5 1010.1 0.0
06/07:00am 20.4 17.5 4.4 35 7.9 SSW 9 15 5 8 1012.6 1010.2 0.0
06/06:30am 18.5 15.8 5.4 42 6.5 SSW 9 13 5 7 1012.5 1010.1 0.0
06/06:00am 18.6 16.3 5.5 42 6.5 SW 7 11 4 6 1012.2 1009.8 0.0
06/05:30am 19.5 16.9 4.4 37 7.4 SSW 7 9 4 5 1011.8 1009.3 0.0
06/05:00am 19.6 16.9 3.7 35 7.7 S 7 11 4 6 1011.4 1008.9 0.0
06/04:30am 19.9 16.7 3.2 33 8.0 S 9 13 5 7 1011.2 1008.8 0.0
06/04:00am 19.7 16.6 3.8 35 7.7 S 9 11 5 6 1011.2 1008.8 0.0
06/03:30am 19.9 16.9 4.0 35 7.7 SSE 9 13 5 7 1011.2 1008.8 0.0
06/03:00am 20.8 17.5 2.6 30 8.7 SSE 9 13 5 7 1011.1 1008.7 0.0
06/02:30am 20.8 17.1 2.6 30 8.7 S 11 13 6 7 1011.1 1008.7 0.0
06/02:00am 20.7 17.6 3.4 32 8.4 S 9 13 5 7 1011.2 1008.8 0.0
06/01:30am 21.0 17.8 3.2 31 8.6 S 9 11 5 6 1011.5 1009.0 0.0
06/01:00am 21.7 18.6 3.4 30 8.9 S 9 13 5 7 1011.6 1009.1 0.0
06/12:30am 22.3 18.7 2.9 28 9.4 SSE 11 15 6 8 1011.7 1009.2 0.0
06/12:00am 23.1 19.4 2.6 26 9.9 SSE 11 17 6 9 1012.1 1009.7 0.0
 
Date/Time
CST
Temp
°C
App
Temp
°C
Dew
Point
°C
Rel
Hum
%
Delta-T
°C
Wind Press
QNH
hPa
Press
MSL
hPa
Rain since
9am
mm
Dir  Spd
km/h
Gust
km/h
Spd
kts
Gust
kts
05/11:30pm 23.5 19.5 2.9 26 10.1 SSE 13 19 7 10 1012.3 1009.9 0.0
05/11:00pm 23.4 20.3 3.4 27 9.9 SSE 9 15 5 8 1012.6 1010.2 0.0
05/10:30pm 23.6 20.0 3.0 26 10.1 SSE 11 15 6 8 1012.5 1010.1 0.0
05/10:00pm 24.0 20.5 3.3 26 10.2 SSE 11 17 6 9 1012.3 1009.9 0.0
05/09:30pm 24.1 20.7 4.0 27 10.1 S 11 15 6 8 1012.2 1009.8 0.0
05/09:00pm 24.4 21.4 4.2 27 10.2 SSE 9 13 5 7 1012.0 1009.5 0.0
05/08:30pm 25.3 22.3 3.9 25 10.8 S 9 15 5 8 1011.7 1009.2 0.0
05/08:00pm 26.0 22.5 3.3 23 11.4 SSE 11 13 6 7 1011.4 1008.9 0.0
05/07:30pm 27.3 23.6 2.4 20 12.4 SSE 11 15 6 8 1010.9 1008.5 0.0
05/07:00pm 29.1 24.8 0.7 16 13.9 SSE 13 20 7 11 1010.5 1008.1 0.0
05/06:30pm 30.4 25.2 -0.1 14 14.8 SSE 17 22 9 12 1010.2 1007.8 0.0
05/06:00pm 31.1 26.3 0.5 14 15.1 SSE 15 28 8 15 1009.9 1007.5 0.0
05/05:30pm 31.5 26.0 0.8 14 15.3 SSE 19 24 10 13 1009.8 1007.4 0.0
05/05:00pm 31.7 26.1 -0.1 13 15.6 SSE 19 28 10 15 1009.8 1007.4 0.0
05/04:30pm 31.7 26.1 -0.1 13 15.6 SE 19 28 10 15 1010.0 1007.6 0.0
05/04:00pm 32.0 26.8 0.2 13 15.7 SE 17 30 9 16 1010.2 1007.8 0.0
05/03:30pm 32.3 27.5 0.4 13 15.8 SE 15 26 8 14 1010.4 1008.0 0.0
05/03:00pm 32.0 27.5 2.1 15 15.2 ESE 15 24 8 13 1010.7 1008.3 0.0
05/02:30pm 31.5 26.3 -0.2 13 15.5 ESE 17 28 9 15 1010.9 1008.5 0.0
05/02:00pm 31.8 27.7 2.0 15 15.1 ESE 13 26 7 14 1011.4 1008.9 0.0
05/01:30pm 31.2 26.6 1.5 15 14.9 SE 15 30 8 16 1011.7 1009.2 0.0
05/01:00pm 30.3 25.5 2.5 17 14.1 SSE 17 24 9 13 1011.9 1009.4 0.0
05/12:30pm 29.7 24.5 0.3 15 14.3 SE 17 26 9 14 1012.3 1009.9 0.0
05/12:00pm 29.3 24.2 3.3 19 13.3 SE 19 26 10 14 1012.7 1010.3 0.0
05/11:30am 29.0 23.2 -0.2 15 14.0 SSE 20 32 11 17 1013.1 1010.7 0.0
05/11:00am 28.4 23.1 1.8 18 13.2 SE 19 28 10 15 1013.5 1011.1 0.0
05/10:30am 28.0 23.0 1.5 18 13.0 SE 17 26 9 14 1013.8 1011.4 0.0
05/10:00am 26.9 21.5 1.3 19 12.4 SE 19 30 10 16 1014.0 1011.6 0.0
05/09:30am 25.7 20.2 1.8 21 11.6 SE 20 30 11 16 1014.1 1011.7 0.0
05/09:00am 24.6 19.4 3.3 25 10.6 SE 20 30 11 16 1013.9 1011.5 0.0
05/08:30am 23.2 17.9 3.2 27 9.8 SE 20 30 11 16 1013.7 1011.3 0.0
05/08:00am 21.8 17.7 4.4 32 8.6 SSE 15 24 8 13 1013.7 1011.3 0.0
05/07:30am 20.0 16.5 5.6 39 7.2 SSE 13 22 7 12 1013.7 1011.3 0.0
05/07:00am 18.1 15.7 7.2 49 5.6 SSE 9 15 5 8 1013.6 1011.2 0.0
05/06:30am 16.0 13.8 8.0 59 4.1 SSE 9 11 5 6 1013.3 1010.9 0.0
05/06:00am 15.4 13.7 8.2 62 3.7 SSE 7 9 4 5 1012.8 1010.4 0.0
05/05:30am 15.7 14.0 8.2 61 3.9 SSE 7 9 4 5 1012.3 1009.9 0.0
05/05:00am 15.9 14.2 8.2 60 4.0 SSE 7 9 4 5 1012.3 1009.9 0.0
05/04:30am 16.1 13.9 7.8 58 4.2 SSE 9 11 5 6 1012.1 1009.7 0.0
05/04:00am 16.5 14.4 8.2 58 4.3 SSE 9 11 5 6 1012.0 1009.5 0.0
05/03:30am 17.2 14.9 7.5 53 5.0 SSE 9 13 5 7 1012.1 1009.7 0.0
05/03:00am 17.6 15.3 7.6 52 5.1 SSE 9 13 5 7 1012.0 1009.5 0.0
05/02:30am 18.0 15.7 7.4 50 5.4 SSE 9 15 5 8 1012.0 1009.5 0.0
05/02:00am 18.3 16.0 7.4 49 5.6 SSE 9 13 5 7 1012.0 1009.5 0.0
05/01:30am 18.0 15.8 8.0 52 5.2 SSE 9 11 5 6 1012.1 1009.7 0.0
05/01:00am 18.6 16.4 7.7 49 5.6 SSE 9 11 5 6 1012.3 1009.9 0.0
05/12:30am 19.4 17.1 7.5 46 6.2 SSE 9 11 5 6 1012.4 1010.0 0.0
05/12:00am 19.7 17.4 7.4 45 6.4 SSE 9 15 5 8 1012.5 1010.1 0.0
 
Date/Time
CST
Temp
°C
App
Temp
°C
Dew
Point
°C
Rel
Hum
%
Delta-T
°C
Wind Press
QNH
hPa
Press
MSL
hPa
Rain since
9am
mm
Dir  Spd
km/h
Gust
km/h
Spd
kts
Gust
kts
04/11:30pm 20.1 17.4 7.5 44 6.6 SE 11 15 6 8 1012.7 1010.3 0.0
04/11:00pm 20.7 17.9 7.0 41 7.1 SE 11 15 6 8 1012.8 1010.4 0.0
04/10:30pm 20.6 17.9 7.2 42 7.0 SE 11 15 6 8 1012.7 1010.3 0.0
04/10:00pm 21.1 18.8 7.3 41 7.2 SE 9 13 5 7 1012.6 1010.2 0.0
04/09:30pm 21.6 18.8 7.1 39 7.6 SE 11 13 6 7 1012.3 1009.9 0.0
04/09:00pm 21.9 19.4 6.6 37 7.9 SE 9 13 5 7 1012.1 1009.7 0.0
04/08:30pm 22.5 19.9 6.3 35 8.4 SE 9 11 5 6 1011.8 1009.3 0.0
04/08:00pm 23.6 20.8 5.0 30 9.4 SE 9 13 5 7 1011.5 1009.0 0.0
04/07:30pm 24.8 21.0 4.0 26 10.5 SE 13 19 7 10 1010.9 1008.5 0.0
04/07:00pm 26.1 21.4 3.4 23 11.4 SSE 17 28 9 15 1010.5 1008.1 0.0
04/06:30pm 27.0 21.8 3.5 22 11.9 SSE 20 32 11 17 1010.1 1007.7 0.0
04/06:00pm 27.6 22.4 3.3 21 12.3 SSE 20 30 11 16 1009.7 1007.3 0.0
04/05:30pm 28.0 23.0 3.7 21 12.4 SSE 19 28 10 15 1009.3 1006.9 0.0
04/05:00pm 28.6 23.6 4.8 22 12.4 S 20 32 11 17 1009.0 1006.5 0.0
04/04:30pm 28.4 23.4 4.6 22 12.4 SSE 20 35 11 19 1009.0 1006.5 0.0
04/04:00pm 28.2 23.2 4.5 22 12.3 SSE 20 32 11 17 1009.1 1006.6 0.0
04/03:30pm 28.5 23.0 4.1 21 12.6 S 22 35 12 19 1009.4 1007.0 0.0
04/03:00pm 28.4 23.2 5.3 23 12.2 SSE 22 37 12 20 1009.6 1007.2 0.0
04/02:30pm 27.9 22.6 4.9 23 12.0 S 22 35 12 19 1009.9 1007.5 0.0
04/02:00pm 27.3 21.9 4.4 23 11.8 SSE 22 35 12 19 1010.3 1007.9 0.0
04/01:30pm 27.3 22.5 5.6 25 11.4 S 20 37 11 20 1010.8 1008.4 0.0
04/01:00pm 27.1 22.6 7.0 28 10.8 S 20 37 11 20 1011.1 1008.7 0.0
04/12:30pm 27.0 23.1 6.9 28 10.8 SSE 17 32 9 17 1011.6 1009.1 0.0
04/12:00pm 25.8 21.1 5.9 28 10.4 SSE 20 35 11 19 1012.1 1009.7 0.0
04/11:30am 25.2 20.6 5.4 28 10.2 SSE 19 30 10 16 1012.5 1010.1 0.0
04/11:00am 24.9 20.3 6.6 31 9.6 SSE 20 37 11 20 1012.9 1010.5 0.0
04/10:30am 24.6 20.1 6.8 32 9.4 SE 20 32 11 17 1013.3 1010.9 0.0
04/10:00am 23.7 19.0 6.0 32 9.2 SE 20 33 11 18 1013.5 1011.1 0.0
04/09:30am 22.6 17.8 5.5 33 8.7 SSE 20 32 11 17 1013.5 1011.1 0.0
04/09:00am 22.2 17.7 6.8 37 8.0 SE 20 30 11 16 1013.4 1011.0 0.0
04/08:30am 21.3 16.2 6.0 37 7.8 SSE 22 32 12 17 1013.2 1010.8 0.0
04/08:00am 20.5 16.0 6.8 41 7.1 SSE 20 32 11 17 1013.0 1010.6 0.0
04/07:30am 19.4 15.7 7.8 47 6.1 SSE 17 24 9 13 1012.9 1010.5 0.0
04/07:00am 18.1 16.5 8.9 55 4.9 SSE 7 15 4 8 1012.6 1010.2 0.0
04/06:30am 17.0 15.4 8.7 58 4.3 SSE 7 11 4 6 1012.1 1009.7 0.0
04/06:00am 17.2 14.7 8.1 55 4.7 SSE 11 17 6 9 1011.6 1009.1 0.0
04/05:30am 17.8 14.7 7.2 50 5.4 SSE 13 20 7 11 1011.0 1008.6 0.0
04/05:00am 18.3 14.4 7.1 48 5.7 SSE 17 24 9 13 1010.6 1008.2 0.0
04/04:30am 18.6 14.4 7.4 48 5.8 SSE 19 30 10 16 1010.4 1008.0 0.0
04/04:00am 18.5 15.2 8.2 51 5.4 SSE 15 20 8 11 1010.1 1007.7 0.0
04/03:30am 18.5 15.7 8.5 52 5.3 SSE 13 19 7 10 1009.8 1007.4 0.0
04/03:00am 18.3 16.5 9.4 56 4.8 S 9 13 5 7 1009.6 1007.2 0.0
04/02:30am 18.8 17.0 9.3 54 5.1 S 9 13 5 7 1009.4 1007.0 0.0
04/02:00am 19.6 17.7 8.9 50 5.7 S 9 15 5 8 1009.3 1006.9 0.0
04/01:30am 20.2 18.0 9.2 49 5.9 S 11 17 6 9 1009.1 1006.6 0.0
04/01:00am 20.4 17.9 9.6 50 5.9 S 13 17 7 9 1009.0 1006.5 0.0
04/12:30am 21.0 18.5 9.6 48 6.2 S 13 20 7 11 1009.2 1006.7 0.0
04/12:00am 21.5 19.0 9.7 47 6.5 SSE 13 17 7 9 1009.3 1006.9 0.0
 
Date/Time
CST
Temp
°C
App
Temp
°C
Dew
Point
°C
Rel
Hum
%
Delta-T
°C
Wind Press
QNH
hPa
Press
MSL
hPa
Rain since
9am
mm
Dir  Spd
km/h
Gust
km/h
Spd
kts
Gust
kts
03/11:30pm 22.1 19.1 9.3 44 7.0 SSE 15 26 8 14 1009.4 1007.0 0.0
03/11:00pm 22.2 19.8 10.0 46 6.7 SSE 13 20 7 11 1009.3 1006.9 0.0
03/10:30pm 22.6 20.2 10.1 45 6.9 SSE 13 22 7 12 1009.3 1006.9 0.0
03/10:00pm 23.0 20.6 10.1 44 7.2 SSE 13 20 7 11 1008.8 1006.3 0.0
03/09:30pm 23.6 21.0 10.6 44 7.3 SSE 15 22 8 12 1008.7 1006.2 0.0
03/09:00pm 24.2 21.5 10.5 42 7.7 SSE 15 22 8 12 1008.3 1005.8 0.0
03/08:30pm 25.0 21.6 10.5 40 8.2 SSE 19 26 10 14 1007.7 1005.3 0.0
03/08:00pm 25.5 22.6 9.7 37 8.8 S 15 24 8 13 1007.3 1004.9 0.0
03/07:30pm 25.9 23.4 9.7 36 9.1 S 13 20 7 11 1006.8 1004.4 0.0
03/07:00pm 26.9 23.8 8.8 32 10.0 S 15 24 8 13 1006.2 1003.7 0.0
03/06:30pm 27.8 24.8 9.1 31 10.5 S 15 26 8 14 1005.8 1003.3 0.0
03/06:00pm 28.4 24.3 8.7 29 11.0 SSW 20 30 11 16 1005.4 1002.9 0.0
03/05:30pm 28.8 24.9 8.5 28 11.3 SSW 19 26 10 14 1005.2 1002.7 0.0
03/05:00pm 28.9 25.0 8.6 28 11.3 S 19 33 10 18 1005.1 1002.6 0.0
03/04:30pm 29.1 24.9 8.2 27 11.6 S 20 32 11 17 1005.2 1002.7 0.0
03/04:00pm 29.3 25.5 8.9 28 11.5 S 19 28 10 15 1005.3 1002.8 0.0
03/03:30pm 29.0 24.9 8.7 28 11.4 SSE 20 33 11 18 1005.4 1002.9 0.0
03/03:00pm 28.9 24.9 9.1 29 11.2 S 20 33 11 18 1005.6 1003.1 0.0
03/02:30pm 28.6 24.5 8.8 29 11.1 SSW 20 30 11 16 1005.6 1003.1 0.0
03/02:00pm 28.5 24.0 8.7 29 11.0 S 22 39 12 21 1006.2 1003.7 0.0
03/01:30pm 28.3 24.5 9.1 30 10.8 SSW 19 32 10 17 1006.4 1003.9 0.0
03/01:00pm 27.4 23.4 8.3 30 10.5 S 19 32 10 17 1006.8 1004.4 0.0
03/12:30pm 27.0 22.7 8.0 30 10.4 SSW 20 32 11 17 1007.2 1004.8 0.0
03/12:00pm 27.0 23.2 8.9 32 10.1 S 19 35 10 19 1007.7 1005.3 0.0
03/11:30am 26.8 22.7 8.7 32 10.0 S 20 37 11 20 1008.2 1005.7 0.0
03/11:00am 26.2 21.5 7.7 31 10.0 S 22 39 12 21 1008.4 1005.9 0.0
03/10:30am 26.0 21.7 8.0 32 9.8 SSE 20 32 11 17 1008.7 1006.2 0.0
03/10:00am 25.0 20.4 8.1 34 9.2 S 22 35 12 19 1008.8 1006.3 0.0
03/09:30am 24.4 19.6 7.5 34 9.0 S 22 33 12 18 1008.8 1006.3 0.0
03/09:00am 24.4 19.5 7.1 33 9.2 S 22 35 12 19 1008.7 1006.2 0.0

Other formats

Comma delimited format used in spreadsheet applications
http://www.bom.gov.au/fwo/IDD60801/IDD60801.94327.axf

JavaScript Object Notation format (JSON) in row-major order
http://www.bom.gov.au/fwo/IDD60801/IDD60801.94327.json

Data quality

Most of these data are generated automatically and are frequently updated. Quality checks on data are not normally performed. It is possible for incorrect values to appear. Refer to information at About Latest Weather Observations and please check the disclaimer before using these data.